To NAV CANADA Home Page Login to a new session Search on AWWS site Feedback and Comments Disclaimer Vers la page française équivalente Tips FAQ What's new on the site To the Forecasts and Observations / NOTAM section To "File a Flight Plan" website Publications and other links Update of the User's profile FIC Telephone Numbers My Weather Data Folder Route Weather Data Regional Weather Data Local Weather Data To the Forecasts and Observations / NOTAM section
Request Generated 08/22/2017 at 03:29:58 UTC . Weather information available at that time is displayed.

METAR/TAF

EDMONTON INTL/AB    

METAR CYEG 220300Z 22003KT 15SM FEW088 BKN100 BKN140 BKN250 16/13
A3008 RMK ACC2AC3AC2CI1 CI TR SH DIST SW SLP194 DENSITY ALT 2900FT=
METAR CYEG 220200Z 24002KT 15SM FEW094 SCT100 BKN140 BKN250 17/14
A3007 RMK AC2AC2AC2CI1 SH DIST ESE+SW SLP195 DENSITY ALT 3100FT=
METAR CYEG 220100Z 28003KT 15SM FEW055 FEW095 BKN110 BKN250 19/12
A3008 RMK CU1AC2AC5CI1 CU TR CI TR SLP198 DENSITY ALT 3200FT=

TAF CYEG 220238Z 2203/2224 VRB03KT P6SM SCT060 BKN140 TEMPO 2203/2205
P6SM VCSH BKN060
FM220800 16008KT P6SM SCT060 BKN120
FM221900 28006KT P6SM SCT060
RMK NXT FCST BY 220600Z=
Your time UTC time
Weather data provided by Environment Canada and NAV CANADA